Aviation Digital Data Service (ADDS)

Output produced by METARs form (0924 UTC 17 February 2019)
found at http://aviationweather.gov/metar/data/
 
KPNE 170854Z AUTO 35007KT 10SM CLR M03/M09 A3009 RMK AO2 SLP190 T10281094 53004
KPNE 170520Z 1706/1806 36006KT P6SM SKC 
     FM172000 VRB04KT P6SM BKN150 
     FM180000 13006KT P6SM OVC050 
     FM180200 12005KT 3SM -PLRA OVC008